createdAt,value
2018-12-26T00:00:00.249Z,5.15
2018-12-26T00:02:28.612Z,5.50
2018-12-26T00:04:56.309Z,4.92
2018-12-26T00:07:24.343Z,5.15
2018-12-26T00:09:52.720Z,4.95
2018-12-26T00:12:20.695Z,4.65
2018-12-26T00:14:49.583Z,4.87
2018-12-26T00:17:18.380Z,5.80
2018-12-26T00:19:46.032Z,5.42
2018-12-26T00:22:14.522Z,8.45
2018-12-26T00:24:42.619Z,7.85
2018-12-26T00:27:11.057Z,9.13
2018-12-26T00:29:38.338Z,10.78
2018-12-26T00:32:06.725Z,10.58
2018-12-26T00:34:34.366Z,10.60
2018-12-26T00:37:02.738Z,11.00
2018-12-26T00:39:30.579Z,10.90
2018-12-26T00:41:58.076Z,10.30
2018-12-26T00:44:26.041Z,12.07
2018-12-26T00:46:54.313Z,9.30
2018-12-26T00:49:23.131Z,9.63
2018-12-26T00:51:50.826Z,9.45
2018-12-26T00:54:18.743Z,8.93
2018-12-26T00:56:47.548Z,9.15
2018-12-26T00:59:15.266Z,10.32
2018-12-26T01:01:43.836Z,8.83
2018-12-26T01:04:12.151Z,9.70
2018-12-26T01:06:40.872Z,10.25
2018-12-26T01:09:08.817Z,8.85
2018-12-26T01:11:36.464Z,9.90
2018-12-26T01:14:04.886Z,9.73
2018-12-26T01:16:33.448Z,8.75
2018-12-26T01:19:01.825Z,9.45
2018-12-26T01:21:29.423Z,9.35
2018-12-26T01:23:57.473Z,8.60
2018-12-26T01:26:25.118Z,9.70
2018-12-26T01:28:53.287Z,9.13
2018-12-26T01:31:21.694Z,10.55
2018-12-26T01:33:49.770Z,10.00
2018-12-26T01:36:18.238Z,10.32
2018-12-26T01:38:45.526Z,9.60
2018-12-26T01:41:12.840Z,8.90
2018-12-26T01:43:40.515Z,8.88
2018-12-26T01:46:08.699Z,9.90
2018-12-26T01:48:37.150Z,8.33
2018-12-26T01:51:04.854Z,7.05
2018-12-26T01:53:32.895Z,6.58
2018-12-26T01:56:01.584Z,7.22
2018-12-26T01:58:29.669Z,6.70
2018-12-26T02:01:02.748Z,6.20
2018-12-26T02:03:31.243Z,6.95
2018-12-26T02:05:59.205Z,4.58
2018-12-26T02:08:27.533Z,5.65
2018-12-26T02:10:56.024Z,6.80
2018-12-26T02:13:23.734Z,6.53
2018-12-26T02:15:52.197Z,6.00
2018-12-26T02:18:20.204Z,7.20
2018-12-26T02:20:48.332Z,6.70
2018-12-26T02:23:17.069Z,6.33
2018-12-26T02:25:45.142Z,6.78
2018-12-26T02:28:13.606Z,7.10
2018-12-26T02:30:41.658Z,6.97
2018-12-26T02:33:09.835Z,7.12
2018-12-26T02:35:38.619Z,7.15
2018-12-26T02:38:06.301Z,8.55
2018-12-26T02:40:33.644Z,8.15
2018-12-26T02:43:01.602Z,8.03
2018-12-26T02:45:30.425Z,8.20
2018-12-26T02:47:59.184Z,8.70
2018-12-26T02:50:27.007Z,9.00
2018-12-26T02:52:55.328Z,8.15
2018-12-26T02:55:23.006Z,9.28
2018-12-26T02:57:51.069Z,7.78
2018-12-26T03:00:19.249Z,8.08
2018-12-26T03:02:47.205Z,7.35
2018-12-26T03:05:15.199Z,7.15
2018-12-26T03:07:43.580Z,6.35
2018-12-26T03:10:12.029Z,5.03
2018-12-26T03:12:40.026Z,5.03
2018-12-26T03:15:08.501Z,6.47
2018-12-26T03:17:36.175Z,4.30
2018-12-26T03:20:03.604Z,4.70
2018-12-26T03:22:31.811Z,5.70
2018-12-26T03:24:59.899Z,4.97
2018-12-26T03:27:27.719Z,4.72
2018-12-26T03:29:55.806Z,4.42
2018-12-26T03:32:23.865Z,5.12
2018-12-26T03:34:52.245Z,4.80
2018-12-26T03:37:20.663Z,5.70
2018-12-26T03:39:48.420Z,4.67
2018-12-26T03:42:16.580Z,5.30
2018-12-26T03:44:45.775Z,5.65
2018-12-26T03:47:14.995Z,6.15
2018-12-26T03:49:43.028Z,6.22
2018-12-26T03:52:11.269Z,6.78
2018-12-26T03:54:39.953Z,7.62
2018-12-26T03:57:07.956Z,9.10
2018-12-26T03:59:37.900Z,9.83
2018-12-26T04:02:05.999Z,7.67
2018-12-26T04:04:34.656Z,7.58
2018-12-26T04:07:03.117Z,9.45
2018-12-26T04:09:31.679Z,9.50
2018-12-26T04:11:59.399Z,8.50
2018-12-26T04:14:27.788Z,9.58
2018-12-26T04:16:55.716Z,7.72
2018-12-26T04:19:24.100Z,8.13
2018-12-26T04:21:52.377Z,7.72
2018-12-26T04:24:22.197Z,6.72
2018-12-26T04:26:49.888Z,7.20
2018-12-26T04:29:18.034Z,6.75
2018-12-26T04:31:46.014Z,6.53
2018-12-26T04:34:14.304Z,5.15
2018-12-26T04:36:41.956Z,5.30
2018-12-26T04:39:10.343Z,5.00
2018-12-26T04:41:38.298Z,8.58
2018-12-26T04:44:06.875Z,8.13
2018-12-26T04:46:34.969Z,9.60
2018-12-26T04:49:02.624Z,9.60
2018-12-26T04:51:30.574Z,9.90
2018-12-26T04:53:58.162Z,10.25
2018-12-26T04:56:26.490Z,9.98
2018-12-26T04:58:53.717Z,9.48
2018-12-26T05:01:21.971Z,9.60
2018-12-26T05:03:50.661Z,10.13
2018-12-26T05:06:18.815Z,10.78
2018-12-26T05:08:46.566Z,10.03
2018-12-26T05:11:14.557Z,10.38
2018-12-26T05:13:42.639Z,10.72
2018-12-26T05:16:11.020Z,10.25
2018-12-26T05:18:39.775Z,10.13
2018-12-26T05:21:07.429Z,9.58
2018-12-26T05:23:35.515Z,8.00
2018-12-26T05:26:03.148Z,11.15
2018-12-26T05:28:31.248Z,9.83
2018-12-26T05:30:59.547Z,10.40
2018-12-26T05:33:27.274Z,9.58
2018-12-26T05:35:55.739Z,11.90
2018-12-26T05:38:23.776Z,9.63
2018-12-26T05:40:51.538Z,9.20
2018-12-26T05:43:20.007Z,9.43
2018-12-26T05:45:48.067Z,10.00
2018-12-26T05:48:16.051Z,8.33
2018-12-26T05:50:44.010Z,9.30
2018-12-26T05:53:11.967Z,10.23
2018-12-26T05:55:39.829Z,9.98
2018-12-26T05:58:07.499Z,10.13
2018-12-26T06:00:35.669Z,10.03
2018-12-26T06:03:04.398Z,10.10
2018-12-26T06:05:32.597Z,8.18
2018-12-26T06:08:00.973Z,9.20
2018-12-26T06:10:29.131Z,9.48
2018-12-26T06:12:57.887Z,9.78
2018-12-26T06:15:26.230Z,10.23
2018-12-26T06:17:54.095Z,9.28
2018-12-26T06:20:22.011Z,9.68
2018-12-26T06:22:49.733Z,9.00
2018-12-26T06:25:17.749Z,10.20
2018-12-26T06:27:51.463Z,9.03
2018-12-26T06:30:15.930Z,10.50
2018-12-26T06:32:44.328Z,10.38
2018-12-26T06:35:12.438Z,10.20
2018-12-26T06:37:40.881Z,11.05
2018-12-26T06:40:09.477Z,10.90
2018-12-26T06:42:37.946Z,11.20
2018-12-26T06:45:05.887Z,12.00
2018-12-26T06:47:33.896Z,13.43
2018-12-26T06:50:02.402Z,11.57
2018-12-26T06:52:31.248Z,11.33
2018-12-26T06:54:59.346Z,11.20
2018-12-26T06:57:27.964Z,12.55
2018-12-26T06:59:56.072Z,12.58
2018-12-26T07:02:24.507Z,15.23
2018-12-26T07:04:52.622Z,14.43
2018-12-26T07:07:20.717Z,12.60
2018-12-26T07:09:48.758Z,14.65
2018-12-26T07:12:16.417Z,13.72
2018-12-26T07:14:45.077Z,14.45
2018-12-26T07:17:13.033Z,14.90
2018-12-26T07:19:41.462Z,15.45
2018-12-26T07:22:09.702Z,13.98
2018-12-26T07:24:38.496Z,14.73
2018-12-26T07:27:06.870Z,14.07
2018-12-26T07:29:35.308Z,16.67
2018-12-26T07:32:03.566Z,13.15
2018-12-26T07:34:32.116Z,13.78
2018-12-26T07:37:00.238Z,13.40
2018-12-26T07:39:28.942Z,15.95
2018-12-26T07:41:57.650Z,14.73
2018-12-26T07:44:27.136Z,16.48
2018-12-26T07:46:55.388Z,15.60
2018-12-26T07:49:23.817Z,16.67
2018-12-26T07:51:51.423Z,16.30
2018-12-26T07:54:20.806Z,17.27
2018-12-26T07:56:49.430Z,15.40
2018-12-26T07:59:17.503Z,14.98
2018-12-26T08:01:45.769Z,17.02
2018-12-26T08:04:14.155Z,15.93
2018-12-26T08:06:42.516Z,14.25
2018-12-26T08:09:10.500Z,15.20
2018-12-26T08:11:38.963Z,16.73
2018-12-26T08:14:06.961Z,14.55
2018-12-26T08:16:34.920Z,15.05
2018-12-26T08:19:03.292Z,15.98
2018-12-26T08:21:31.642Z,14.07
2018-12-26T08:23:59.785Z,16.85
2018-12-26T08:26:27.532Z,15.60
2018-12-26T08:28:56.232Z,16.45
2018-12-26T08:31:24.605Z,16.62
2018-12-26T08:33:52.743Z,16.27
2018-12-26T08:36:21.561Z,16.62
2018-12-26T08:38:49.955Z,16.95
2018-12-26T08:41:18.680Z,17.42
2018-12-26T08:43:47.514Z,15.55
2018-12-26T08:46:15.516Z,14.68
2018-12-26T08:48:43.535Z,17.32
2018-12-26T08:51:11.717Z,18.00
2018-12-26T08:53:40.242Z,20.00
2018-12-26T08:56:08.083Z,19.62
2018-12-26T08:58:36.450Z,15.78
2018-12-26T09:01:04.435Z,16.32
2018-12-26T09:03:32.687Z,16.75
2018-12-26T09:06:01.014Z,18.85
2018-12-26T09:08:29.368Z,16.45
2018-12-26T09:10:58.071Z,18.62
2018-12-26T09:13:26.543Z,16.90
2018-12-26T09:15:55.163Z,16.20
2018-12-26T09:18:23.203Z,22.07
2018-12-26T09:20:52.165Z,17.95
2018-12-26T09:23:20.130Z,20.23
2018-12-26T09:26:01.477Z,16.93
2018-12-26T09:28:30.136Z,16.23
2018-12-26T09:30:58.722Z,44.70
2018-12-26T09:33:26.679Z,31.07
2018-12-26T09:35:56.141Z,18.45
2018-12-26T09:38:25.324Z,18.55
2018-12-26T09:40:52.928Z,16.57
2018-12-26T09:43:21.296Z,16.85
2018-12-26T09:45:48.975Z,18.05
2018-12-26T09:48:17.094Z,16.75
2018-12-26T09:50:46.860Z,17.12
2018-12-26T09:53:15.909Z,16.85
2018-12-26T09:55:44.636Z,19.10
2018-12-26T09:58:12.722Z,17.70
2018-12-26T10:00:41.030Z,17.48
2018-12-26T10:03:08.896Z,17.90
2018-12-26T10:05:36.843Z,18.45
2018-12-26T10:08:05.624Z,16.85
2018-12-26T10:10:33.713Z,17.27
2018-12-26T10:13:02.116Z,19.55
2018-12-26T10:15:30.654Z,17.48
2018-12-26T10:17:58.256Z,18.52
2018-12-26T10:20:26.328Z,16.80
2018-12-26T10:22:54.359Z,18.27
2018-12-26T10:25:22.799Z,18.85
2018-12-26T10:27:50.512Z,16.00
2018-12-26T10:30:18.649Z,20.68
2018-12-26T10:32:46.872Z,17.67
2018-12-26T10:35:14.937Z,17.67
2018-12-26T10:37:44.785Z,15.80
2018-12-26T10:40:12.885Z,16.80
2018-12-26T10:42:41.179Z,17.90
2018-12-26T10:45:09.152Z,17.25
2018-12-26T10:47:37.426Z,17.65
2018-12-26T10:50:07.649Z,17.70
2018-12-26T10:52:35.337Z,16.42
2018-12-26T10:55:03.428Z,15.58
2018-12-26T10:57:31.506Z,17.30
2018-12-26T10:59:59.742Z,20.48
2018-12-26T11:02:28.582Z,17.00
2018-12-26T11:04:56.982Z,17.62
2018-12-26T11:07:24.994Z,17.95
2018-12-26T11:09:53.014Z,17.87
2018-12-26T11:12:21.260Z,15.65
2018-12-26T11:14:49.389Z,17.70
2018-12-26T11:17:17.180Z,17.48
2018-12-26T11:19:45.455Z,18.45
2018-12-26T11:22:13.628Z,18.32
2018-12-26T11:24:42.124Z,17.73
2018-12-26T11:27:10.533Z,15.13
2018-12-26T11:29:38.363Z,17.37
2018-12-26T11:32:06.561Z,17.02
2018-12-26T11:34:34.607Z,15.43
2018-12-26T11:37:04.728Z,16.10
2018-12-26T11:39:33.876Z,14.07
2018-12-26T11:42:01.574Z,16.10
2018-12-26T11:44:30.360Z,13.75
2018-12-26T11:46:58.033Z,14.73
2018-12-26T11:49:26.247Z,13.48
2018-12-26T11:51:54.718Z,15.20
2018-12-26T11:54:24.324Z,14.75
2018-12-26T11:56:52.499Z,12.50
2018-12-26T11:59:27.188Z,13.50
2018-12-26T12:01:51.179Z,13.53
2018-12-26T12:04:18.977Z,14.05
2018-12-26T12:06:47.340Z,14.63
2018-12-26T12:09:15.399Z,13.08
2018-12-26T12:11:43.774Z,14.03
2018-12-26T12:14:11.976Z,13.93
2018-12-26T12:16:40.467Z,13.80
2018-12-26T12:19:08.935Z,14.65
2018-12-26T12:21:37.001Z,15.18
2018-12-26T12:24:05.475Z,14.33
2018-12-26T12:26:33.490Z,14.10
2018-12-26T12:29:01.552Z,14.87
2018-12-26T12:31:29.987Z,13.80
2018-12-26T12:33:58.455Z,14.13
2018-12-26T12:36:27.262Z,13.90
2018-12-26T12:38:54.988Z,13.53
2018-12-26T12:41:23.528Z,14.68
2018-12-26T12:43:51.966Z,13.48
2018-12-26T12:46:20.208Z,16.80
2018-12-26T12:48:48.351Z,18.67
2018-12-26T12:51:16.422Z,16.20
2018-12-26T12:53:44.942Z,17.85
2018-12-26T12:56:14.850Z,18.62
2018-12-26T12:58:43.199Z,17.42
2018-12-26T13:01:11.169Z,19.60
2018-12-26T13:03:46.376Z,19.65
2018-12-26T13:06:08.767Z,20.27
2018-12-26T13:08:36.447Z,19.77
2018-12-26T13:11:05.014Z,22.58
2018-12-26T13:13:32.892Z,22.10
2018-12-26T13:16:01.461Z,23.15
2018-12-26T13:18:30.095Z,19.98
2018-12-26T13:20:58.211Z,21.90
2018-12-26T13:23:27.009Z,21.10
2018-12-26T13:25:55.283Z,21.12
2018-12-26T13:28:23.840Z,20.25
2018-12-26T13:30:51.855Z,21.33
2018-12-26T13:33:20.200Z,20.62
2018-12-26T13:35:48.653Z,17.98
2018-12-26T13:38:17.059Z,19.20
2018-12-26T13:40:45.115Z,17.48
2018-12-26T13:43:13.622Z,17.07
2018-12-26T13:45:41.282Z,17.95
2018-12-26T13:48:09.392Z,17.87
2018-12-26T13:50:38.345Z,21.80
2018-12-26T13:53:06.132Z,19.20
2018-12-26T13:55:34.900Z,17.35
2018-12-26T13:58:03.399Z,18.20
2018-12-26T14:00:31.862Z,17.32
2018-12-26T14:03:00.473Z,18.60
2018-12-26T14:05:29.346Z,18.65
2018-12-26T14:07:57.577Z,17.90
2018-12-26T14:10:26.272Z,19.37
2018-12-26T14:12:54.485Z,18.05
2018-12-26T14:15:22.964Z,18.45
2018-12-26T14:17:51.038Z,20.97
2018-12-26T14:20:18.741Z,22.95
2018-12-26T14:22:47.192Z,23.18
2018-12-26T14:25:15.945Z,21.85
2018-12-26T14:27:45.179Z,21.65
2018-12-26T14:30:13.552Z,21.93
2018-12-26T14:32:41.791Z,23.52
2018-12-26T14:35:10.668Z,22.22
2018-12-26T14:37:38.811Z,23.00
2018-12-26T14:40:06.855Z,22.87
2018-12-26T14:42:34.819Z,22.60
2018-12-26T14:45:03.213Z,20.95
2018-12-26T14:47:31.699Z,21.73
2018-12-26T14:50:00.371Z,21.35
2018-12-26T14:52:28.084Z,21.82
2018-12-26T14:54:56.611Z,22.95
2018-12-26T14:57:24.617Z,22.60
2018-12-26T14:59:53.067Z,22.42
2018-12-26T15:02:21.171Z,24.18
2018-12-26T15:04:49.734Z,23.75
2018-12-26T15:07:18.682Z,20.80
2018-12-26T15:09:46.871Z,21.10
2018-12-26T15:12:14.965Z,22.52
2018-12-26T15:14:43.804Z,19.50
2018-12-26T15:17:12.383Z,20.62
2018-12-26T15:19:40.858Z,19.23
2018-12-26T15:22:08.859Z,19.00
2018-12-26T15:24:37.384Z,18.73
2018-12-26T15:27:05.641Z,18.52
2018-12-26T15:29:34.343Z,18.23
2018-12-26T15:32:02.703Z,18.50
2018-12-26T15:34:30.433Z,18.25
2018-12-26T15:36:58.554Z,18.35
2018-12-26T15:39:27.275Z,19.35
2018-12-26T15:41:56.029Z,18.50
2018-12-26T15:44:23.608Z,18.60
2018-12-26T15:46:52.477Z,17.95
2018-12-26T15:49:20.546Z,18.15
2018-12-26T15:51:48.691Z,18.87
2018-12-26T15:54:16.528Z,19.62
2018-12-26T15:56:45.366Z,18.35
2018-12-26T15:59:32.223Z,17.30
2018-12-26T16:02:00.333Z,15.70
2018-12-26T16:04:28.376Z,16.93
2018-12-26T16:06:56.932Z,15.60
2018-12-26T16:09:25.712Z,15.85
2018-12-26T16:11:54.551Z,16.85
2018-12-26T16:14:22.982Z,17.27
2018-12-26T16:16:51.498Z,16.15
2018-12-26T16:19:19.791Z,15.40
2018-12-26T16:21:48.146Z,16.60
2018-12-26T16:24:16.526Z,16.32
2018-12-26T16:26:44.607Z,17.48
2018-12-26T16:29:13.239Z,16.12
2018-12-26T16:31:41.747Z,16.07
2018-12-26T16:34:10.255Z,15.98
2018-12-26T16:36:38.625Z,16.52
2018-12-26T16:39:06.710Z,17.07
2018-12-26T16:41:35.300Z,16.32
2018-12-26T16:44:04.972Z,16.23
2018-12-26T16:46:33.358Z,15.83
2018-12-26T16:49:01.442Z,16.93
2018-12-26T16:51:29.919Z,16.48
2018-12-26T16:53:58.361Z,17.70
2018-12-26T16:56:25.946Z,17.40
2018-12-26T16:58:53.931Z,17.73
2018-12-26T17:01:21.996Z,17.20
2018-12-26T17:03:50.096Z,17.05
2018-12-26T17:06:19.080Z,19.02
2018-12-26T17:08:47.542Z,17.73
2018-12-26T17:11:17.506Z,16.97
2018-12-26T17:13:45.729Z,15.13
2018-12-26T17:16:15.978Z,16.80
2018-12-26T17:18:44.063Z,16.12
2018-12-26T17:21:12.112Z,17.73
2018-12-26T17:23:40.925Z,16.97
2018-12-26T17:26:09.162Z,18.50
2018-12-26T17:28:37.288Z,21.55
2018-12-26T17:31:05.495Z,25.02
2018-12-26T17:33:33.211Z,20.82
2018-12-26T17:36:01.419Z,21.80
2018-12-26T17:38:29.444Z,20.62
2018-12-26T17:40:58.321Z,18.37
2018-12-26T17:43:26.691Z,18.40
2018-12-26T17:45:55.061Z,19.45
2018-12-26T17:48:23.153Z,18.00
2018-12-26T17:50:51.416Z,20.02
2018-12-26T17:53:26.591Z,17.55
2018-12-26T17:56:19.656Z,20.50
2018-12-26T17:58:56.254Z,18.87
2018-12-26T18:01:29.409Z,20.92
2018-12-26T18:03:57.642Z,19.00
2018-12-26T18:06:26.029Z,20.25
2018-12-26T18:08:54.843Z,21.40
2018-12-26T18:11:23.829Z,19.48
2018-12-26T18:13:51.900Z,20.52
2018-12-26T18:16:20.044Z,21.55
2018-12-26T18:18:48.171Z,22.45
2018-12-26T18:21:16.634Z,21.62
2018-12-26T18:23:45.054Z,20.43
2018-12-26T18:26:13.536Z,21.70
2018-12-26T18:28:42.409Z,20.37
2018-12-26T18:31:10.045Z,20.45
2018-12-26T18:33:38.283Z,17.82
2018-12-26T18:36:07.008Z,20.45
2018-12-26T18:38:34.596Z,21.02
2018-12-26T18:41:03.065Z,19.73
2018-12-26T18:43:31.546Z,20.20
2018-12-26T18:45:59.707Z,19.32
2018-12-26T18:48:28.392Z,19.50
2018-12-26T18:50:56.471Z,19.73
2018-12-26T18:53:30.081Z,20.32
2018-12-26T18:56:07.598Z,19.73
2018-12-26T18:58:36.292Z,24.20
2018-12-26T19:01:06.201Z,24.43
2018-12-26T19:03:35.874Z,20.88
2018-12-26T19:06:04.108Z,23.07
2018-12-26T19:08:32.250Z,23.20
2018-12-26T19:11:07.192Z,22.75
2018-12-26T19:13:36.325Z,20.20
2018-12-26T19:16:07.326Z,19.87
2018-12-26T19:18:37.995Z,20.62
2018-12-26T19:21:06.217Z,19.30
2018-12-26T19:23:35.564Z,19.45
2018-12-26T19:26:05.487Z,18.65
2018-12-26T19:28:36.239Z,21.07
2018-12-26T19:31:04.981Z,21.75
2018-12-26T19:33:35.929Z,19.20
2018-12-26T19:36:04.429Z,17.50
2018-12-26T19:38:33.125Z,18.30
2018-12-26T19:41:04.906Z,17.10
2018-12-26T19:43:33.924Z,18.82
2018-12-26T19:46:02.079Z,17.60
2018-12-26T19:48:31.859Z,18.02
2018-12-26T19:51:02.898Z,17.77
2018-12-26T19:53:33.027Z,21.52
2018-12-26T19:56:00.948Z,28.35
2018-12-26T19:58:29.336Z,18.85
2018-12-26T20:00:57.982Z,18.50
2018-12-26T20:03:26.819Z,19.30
2018-12-26T20:05:55.392Z,16.80
2018-12-26T20:08:23.576Z,16.52
2018-12-26T20:10:52.124Z,17.00
2018-12-26T20:13:20.735Z,17.30
2018-12-26T20:15:49.092Z,16.32
2018-12-26T20:18:17.188Z,16.60
2018-12-26T20:20:45.762Z,15.95
2018-12-26T20:23:13.929Z,15.23
2018-12-26T20:25:42.035Z,16.82
2018-12-26T20:28:10.184Z,16.85
2018-12-26T20:30:38.244Z,15.80
2018-12-26T20:33:07.049Z,18.80
2018-12-26T20:35:35.853Z,18.10
2018-12-26T20:38:04.286Z,16.80
2018-12-26T20:40:33.009Z,18.70
2018-12-26T20:43:02.597Z,18.17
2018-12-26T20:45:31.312Z,24.07
2018-12-26T20:47:59.074Z,19.15
2018-12-26T20:50:27.365Z,17.23
2018-12-26T20:52:55.760Z,16.30
2018-12-26T20:55:23.910Z,16.42
2018-12-26T20:57:51.809Z,17.30
2018-12-26T21:00:21.598Z,15.03
2018-12-26T21:02:49.670Z,15.45
2018-12-26T21:05:18.340Z,16.57
2018-12-26T21:07:45.706Z,17.60
2018-12-26T21:10:14.160Z,16.07
2018-12-26T21:12:42.782Z,18.90
2018-12-26T21:15:11.634Z,16.30
2018-12-26T21:17:40.351Z,18.80
2018-12-26T21:20:08.947Z,15.30
2018-12-26T21:22:37.171Z,17.62
2018-12-26T21:25:06.305Z,15.43
2018-12-26T21:27:33.932Z,16.15
2018-12-26T21:30:03.192Z,17.30
2018-12-26T21:32:31.834Z,15.95
2018-12-26T21:35:00.322Z,16.62
2018-12-26T21:37:28.679Z,16.07
2018-12-26T21:39:59.862Z,17.20
2018-12-26T21:42:28.784Z,16.85
2018-12-26T21:44:57.110Z,14.70
2018-12-26T21:47:25.395Z,15.58
2018-12-26T21:49:53.101Z,17.42
2018-12-26T21:52:21.342Z,18.07
2018-12-26T21:54:49.569Z,15.75
2018-12-26T21:57:17.378Z,16.65
2018-12-26T21:59:45.511Z,15.93
2018-12-26T22:02:13.713Z,14.50
2018-12-26T22:04:41.495Z,15.10
2018-12-26T22:07:31.519Z,19.15
2018-12-26T22:10:07.165Z,16.32
2018-12-26T22:12:37.524Z,15.05
2018-12-26T22:15:11.603Z,15.38
2018-12-26T22:17:44.268Z,16.05
2018-12-26T22:20:22.283Z,14.65
2018-12-26T22:22:56.200Z,13.40
2018-12-26T22:25:34.153Z,14.75
2018-12-26T22:28:02.287Z,14.83
2018-12-26T22:30:33.774Z,16.00
2018-12-26T22:33:07.009Z,16.42
2018-12-26T22:35:39.037Z,18.52
2018-12-26T22:38:15.195Z,17.87
2018-12-26T22:40:48.139Z,17.20
2018-12-26T22:43:16.073Z,16.20
2018-12-26T22:45:48.898Z,17.17
2018-12-26T22:48:17.251Z,15.88
2018-12-26T22:50:45.741Z,17.50
2018-12-26T22:53:16.643Z,17.40
2018-12-26T22:55:46.580Z,16.97
2018-12-26T22:58:15.024Z,16.65
2018-12-26T23:00:44.837Z,17.02
2018-12-26T23:03:13.907Z,15.90
2018-12-26T23:05:42.406Z,16.27
2018-12-26T23:08:11.820Z,17.23
2018-12-26T23:10:39.837Z,17.00
2018-12-26T23:13:08.167Z,16.20
2018-12-26T23:15:36.955Z,15.45
2018-12-26T23:18:05.425Z,18.50
2018-12-26T23:20:34.944Z,18.50
2018-12-26T23:23:03.027Z,17.20
2018-12-26T23:25:31.531Z,15.00
2018-12-26T23:28:00.899Z,16.77
2018-12-26T23:30:29.090Z,17.15
2018-12-26T23:33:00.963Z,15.55
2018-12-26T23:35:29.142Z,16.57
2018-12-26T23:37:59.588Z,17.30
2018-12-26T23:40:27.519Z,18.90
2018-12-26T23:42:56.090Z,17.82
2018-12-26T23:45:24.288Z,18.32
2018-12-26T23:47:52.252Z,16.48
2018-12-26T23:50:20.583Z,16.12
2018-12-26T23:52:48.408Z,16.90
2018-12-26T23:55:17.151Z,16.97
2018-12-26T23:57:45.653Z,16.82
